< Typhoon 195419 1954 Season Typhoon 195421 >
Typhoon 195420 (RUBY)
General InformationTrack Information on Google Maps || NewsDisaster Info.ResourceGoogle EarthGE AnimationAtom FeedGeoJSON
Detalied Best Track (Time Zone = UTC)
Year Month Day Hour Lat. Long. Pressure (hPa) Wind (kt) Class Image Chart
1954 11 3 00 4.7 145.4 1001 0 2 -- Chart
1954 11 3 06 4.9 144.1 997 0 2 -- Chart
1954 11 3 12 5.0 144.0 995 0 2 -- Chart
1954 11 3 18 5.2 143.8 992 0 2 -- Chart
1954 11 4 00 5.8 143.3 990 0 9 -- Chart
1954 11 4 06 7.3 142.9 990 0 9 -- Chart
1954 11 4 12 7.9 141.5 990 0 9 -- Chart
1954 11 4 18 8.8 140.2 990 0 9 -- Chart
1954 11 5 00 9.6 139.0 985 0 9 -- Chart
1954 11 5 06 10.1 137.4 985 0 9 -- Chart
1954 11 5 12 10.0 136.4 985 0 9 -- Chart
1954 11 5 18 10.5 134.6 975 0 9 -- Chart
1954 11 6 00 11.0 133.2 975 0 9 -- Chart
1954 11 6 06 11.1 131.4 960 0 9 -- Chart
1954 11 6 12 12.0 130.0 960 0 9 -- Chart
1954 11 6 18 12.3 129.0 960 0 9 -- Chart
1954 11 7 00 12.8 127.9 940 0 9 -- Chart
1954 11 7 06 13.5 126.9 940 0 9 -- Chart
1954 11 7 12 14.0 125.3 940 0 9 -- Chart
1954 11 7 18 14.8 124.5 940 0 9 -- Chart
1954 11 8 00 15.5 123.1 950 0 9 -- Chart
1954 11 8 06 16.0 122.0 950 0 9 -- Chart
1954 11 8 12 16.5 120.7 950 0 9 -- Chart
1954 11 8 18 16.8 120.0 950 0 9 -- Chart
1954 11 9 00 17.1 119.3 950 0 9 -- Chart
1954 11 9 06 17.6 118.8 950 0 9 -- Chart
1954 11 9 12 18.1 118.3 950 0 9 -- Chart
1954 11 9 18 18.6 117.9 950 0 9 -- Chart
1954 11 10 00 19.2 117.3 950 0 9 -- Chart
1954 11 10 06 20.3 116.7 960 0 9 -- Chart
1954 11 10 12 20.7 116.5 960 0 9 -- Chart
1954 11 10 18 21.0 116.3 960 0 9 -- Chart
1954 11 11 00 21.4 116.0 970 0 9 -- Chart
1954 11 11 06 21.8 115.6 980 0 9 -- Chart
1954 11 11 12 22.3 115.3 990 0 9 -- Chart
1954 11 11 18 23.0 115.0 995 0 9 -- Chart
1954 11 12 00 23.5 115.1 1000 0 2 -- Chart
1954 11 12 06 23.9 115.1 1004 0 2 -- Chart
1954 11 12 12 24.0 115.1 1008 0 2 -- Chart
Japan Meteorological Agency Best Track Data | Correction Date : 1989-06-01
< Typhoon 195419 1954 Season Typhoon 195421 >

Help